createdAt,value
2022-12-15T00:02:16.983Z,91.82
2022-12-15T00:05:02.150Z,91.85
2022-12-15T00:07:48.720Z,91.85
2022-12-15T00:10:34.242Z,91.72
2022-12-15T00:13:19.395Z,91.90
2022-12-15T00:16:04.880Z,92.01
2022-12-15T00:18:49.998Z,91.96
2022-12-15T00:21:35.508Z,91.62
2022-12-15T00:24:22.160Z,91.80
2022-12-15T00:27:07.598Z,91.42
2022-12-15T00:29:53.082Z,92.17
2022-12-15T00:32:38.475Z,91.99
2022-12-15T00:35:24.362Z,91.86
2022-12-15T00:38:09.800Z,92.00
2022-12-15T00:40:37.691Z,91.79
2022-12-15T00:43:04.260Z,91.92
2022-12-15T00:45:49.521Z,92.02
2022-12-15T00:48:16.219Z,91.79
2022-12-15T00:50:53.509Z,92.00
2022-12-15T00:53:38.603Z,92.21
2022-12-15T00:56:26.043Z,91.85
2022-12-15T00:59:11.318Z,91.68
2022-12-15T01:01:56.696Z,91.91
2022-12-15T01:04:42.165Z,91.92
2022-12-15T01:07:27.463Z,91.86
2022-12-15T01:10:12.990Z,92.01
2022-12-15T01:12:59.571Z,91.90
2022-12-15T01:15:44.979Z,92.15
2022-12-15T01:18:30.689Z,91.68
2022-12-15T01:20:57.946Z,92.08
2022-12-15T01:23:24.798Z,91.91
2022-12-15T01:25:52.130Z,91.49
2022-12-15T01:28:20.855Z,89.51
2022-12-15T01:30:47.529Z,89.19
2022-12-15T01:33:14.508Z,89.64
2022-12-15T01:35:41.459Z,91.23
2022-12-15T01:38:09.009Z,91.01
2022-12-15T01:40:50.059Z,91.39
2022-12-15T01:43:18.774Z,91.52
2022-12-15T01:45:50.882Z,91.64
2022-12-15T01:48:23.150Z,91.80
2022-12-15T01:50:58.355Z,91.80
2022-12-15T01:53:25.935Z,91.62
2022-12-15T01:55:52.556Z,91.65
2022-12-15T01:58:22.154Z,91.37
2022-12-15T02:00:50.147Z,91.50
2022-12-15T02:03:17.580Z,91.63
2022-12-15T02:05:45.404Z,91.53
2022-12-15T02:08:12.088Z,91.15
2022-12-15T02:10:54.827Z,90.62
2022-12-15T02:13:29.082Z,90.86
2022-12-15T02:16:05.266Z,91.00
2022-12-15T02:18:38.187Z,90.79
2022-12-15T02:21:11.275Z,90.65
2022-12-15T02:24:13.186Z,89.49
2022-12-15T02:27:15.777Z,91.20
2022-12-15T02:30:09.027Z,91.18
2022-12-15T02:32:43.648Z,91.22
2022-12-15T02:35:15.017Z,90.95
2022-12-15T02:37:42.028Z,90.99
2022-12-15T02:40:11.584Z,90.92
2022-12-15T02:42:43.541Z,91.14
2022-12-15T02:45:14.342Z,91.16
2022-12-15T02:47:47.591Z,90.76
2022-12-15T02:50:31.945Z,90.49
2022-12-15T02:53:10.187Z,90.80
2022-12-15T02:55:46.628Z,88.91
2022-12-15T02:58:26.128Z,90.67
2022-12-15T03:01:01.508Z,91.09
2022-12-15T03:03:31.723Z,90.97
2022-12-15T03:06:00.937Z,91.05
2022-12-15T03:08:27.524Z,90.77
2022-12-15T03:10:55.328Z,90.36
2022-12-15T03:13:21.878Z,90.08
2022-12-15T03:15:48.420Z,89.54
2022-12-15T03:18:16.338Z,87.67
2022-12-15T03:20:42.890Z,90.36
2022-12-15T03:23:09.644Z,90.60
2022-12-15T03:25:36.207Z,90.92
2022-12-15T03:28:02.766Z,90.76
2022-12-15T03:30:29.381Z,90.63
2022-12-15T03:32:55.942Z,90.62
2022-12-15T03:35:23.883Z,90.67
2022-12-15T03:37:50.418Z,90.36
2022-12-15T03:40:17.100Z,87.13
2022-12-15T03:42:50.991Z,87.42
2022-12-15T03:45:18.846Z,87.84
2022-12-15T03:47:46.301Z,90.42
2022-12-15T03:50:15.205Z,90.37
2022-12-15T03:52:43.520Z,90.42
2022-12-15T03:55:11.651Z,89.33
2022-12-15T03:57:38.356Z,89.96
2022-12-15T04:00:06.304Z,90.75
2022-12-15T04:02:32.975Z,90.58
2022-12-15T04:04:59.655Z,90.40
2022-12-15T04:07:26.173Z,89.33
2022-12-15T04:09:54.068Z,89.88
2022-12-15T04:12:20.584Z,90.29
2022-12-15T04:14:47.122Z,90.13
2022-12-15T04:17:16.276Z,90.04
2022-12-15T04:20:01.525Z,90.08
2022-12-15T04:22:28.106Z,90.06
2022-12-15T04:25:14.596Z,90.43
2022-12-15T04:28:01.651Z,90.23
2022-12-15T04:30:48.900Z,90.18
2022-12-15T04:33:34.964Z,90.32
2022-12-15T04:36:20.955Z,90.09
2022-12-15T04:39:06.379Z,90.20
2022-12-15T04:41:53.131Z,90.14
2022-12-15T04:44:38.372Z,89.83
2022-12-15T04:47:23.650Z,89.78
2022-12-15T04:50:10.097Z,90.10
2022-12-15T04:52:55.387Z,89.89
2022-12-15T04:55:40.876Z,89.74
2022-12-15T04:58:27.950Z,89.96
2022-12-15T05:01:15.435Z,90.10
2022-12-15T05:04:01.243Z,89.73
2022-12-15T05:06:47.210Z,89.60
2022-12-15T05:09:32.586Z,89.39
2022-12-15T05:12:17.916Z,89.58
2022-12-15T05:15:04.597Z,86.22
2022-12-15T05:17:50.017Z,89.01
2022-12-15T05:20:35.194Z,89.52
2022-12-15T05:23:20.526Z,89.37
2022-12-15T05:26:05.882Z,89.61
2022-12-15T05:28:51.247Z,89.78
2022-12-15T05:31:38.099Z,89.47
2022-12-15T05:34:05.685Z,89.66
2022-12-15T05:36:32.680Z,89.51
2022-12-15T05:38:59.356Z,89.62
2022-12-15T05:41:25.910Z,89.69
2022-12-15T05:43:52.501Z,89.48
2022-12-15T05:46:20.411Z,89.34
2022-12-15T05:48:47.278Z,89.49
2022-12-15T05:51:14.567Z,89.39
2022-12-15T05:53:41.877Z,89.55
2022-12-15T05:56:10.328Z,89.13
2022-12-15T05:58:44.553Z,89.34
2022-12-15T06:01:13.697Z,89.25
2022-12-15T06:03:42.601Z,89.22
2022-12-15T06:06:11.489Z,89.24
2022-12-15T06:08:40.589Z,89.29
2022-12-15T06:11:08.210Z,89.17
2022-12-15T06:13:35.270Z,89.35
2022-12-15T06:16:04.078Z,89.35
2022-12-15T06:18:32.538Z,89.12
2022-12-15T06:21:02.298Z,89.20
2022-12-15T06:23:29.064Z,89.46
2022-12-15T06:25:56.587Z,89.38
2022-12-15T06:28:26.473Z,89.48
2022-12-15T06:30:54.068Z,89.21
2022-12-15T06:33:22.050Z,89.29
2022-12-15T06:35:49.263Z,89.23
2022-12-15T06:38:17.156Z,89.22
2022-12-15T06:40:43.772Z,85.43
2022-12-15T06:43:11.638Z,87.00
2022-12-15T06:45:38.186Z,87.96
2022-12-15T06:48:05.485Z,88.68
2022-12-15T06:50:32.033Z,89.67
2022-12-15T06:52:59.163Z,89.54
2022-12-15T06:55:27.130Z,89.34
2022-12-15T06:57:53.715Z,89.52
2022-12-15T07:00:20.287Z,89.32
2022-12-15T07:02:48.368Z,89.61
2022-12-15T07:05:16.936Z,89.83
2022-12-15T07:07:43.518Z,89.53
2022-12-15T07:10:11.001Z,89.53
2022-12-15T07:12:38.992Z,89.00
2022-12-15T07:15:08.038Z,89.00
2022-12-15T07:17:35.230Z,88.74
2022-12-15T07:20:01.820Z,88.72
2022-12-15T07:22:28.579Z,88.54
2022-12-15T07:24:55.142Z,85.92
2022-12-15T07:27:21.697Z,88.74
2022-12-15T07:29:49.614Z,85.66
2022-12-15T07:32:16.177Z,89.29
2022-12-15T07:34:42.761Z,87.93
2022-12-15T07:37:09.376Z,89.01
2022-12-15T07:39:36.243Z,88.61
2022-12-15T07:42:02.976Z,88.65
2022-12-15T07:44:29.607Z,88.19
2022-12-15T07:46:57.576Z,88.34
2022-12-15T07:49:24.243Z,88.46
2022-12-15T07:51:50.927Z,88.10
2022-12-15T07:54:17.505Z,88.23
2022-12-15T07:56:44.210Z,87.98
2022-12-15T07:59:17.127Z,87.74
2022-12-15T08:01:43.848Z,87.76
2022-12-15T08:04:12.109Z,87.74
2022-12-15T08:06:38.649Z,87.70
2022-12-15T08:09:05.177Z,85.26
2022-12-15T08:11:35.049Z,87.19
2022-12-15T08:14:03.437Z,87.50
2022-12-15T08:16:31.073Z,87.83
2022-12-15T08:18:57.690Z,86.09
2022-12-15T08:21:25.718Z,86.90
2022-12-15T08:23:52.336Z,86.57
2022-12-15T08:26:19.563Z,86.04
2022-12-15T08:28:46.843Z,85.02
2022-12-15T08:31:16.640Z,85.39
2022-12-15T08:33:44.656Z,86.45
2022-12-15T08:36:13.732Z,88.53
2022-12-15T08:38:43.082Z,88.04
2022-12-15T08:41:11.323Z,87.57
2022-12-15T08:43:43.992Z,87.39
2022-12-15T08:46:15.082Z,87.26
2022-12-15T08:48:41.683Z,86.84
2022-12-15T08:51:08.315Z,87.20
2022-12-15T08:53:35.013Z,85.76
2022-12-15T08:56:04.613Z,87.27
2022-12-15T08:58:31.236Z,85.53
2022-12-15T09:01:00.534Z,86.17
2022-12-15T09:03:27.392Z,84.99
2022-12-15T09:05:54.086Z,87.50
2022-12-15T09:08:20.647Z,87.65
2022-12-15T09:10:47.195Z,87.48
2022-12-15T09:13:20.497Z,87.29
2022-12-15T09:16:11.349Z,87.22
2022-12-15T09:18:38.262Z,87.01
2022-12-15T09:21:07.435Z,86.75
2022-12-15T09:23:36.201Z,87.53
2022-12-15T09:26:04.819Z,86.92
2022-12-15T09:28:33.163Z,87.15
2022-12-15T09:31:03.044Z,86.10
2022-12-15T09:33:30.141Z,86.98
2022-12-15T09:35:57.013Z,87.15
2022-12-15T09:38:23.576Z,87.15
2022-12-15T09:40:50.203Z,87.32
2022-12-15T09:43:46.249Z,87.16
2022-12-15T09:46:28.227Z,87.15
2022-12-15T09:48:58.806Z,87.13
2022-12-15T09:51:32.353Z,86.59
2022-12-15T09:53:59.391Z,86.39
2022-12-15T09:56:37.597Z,85.86
2022-12-15T09:59:14.555Z,86.69
2022-12-15T10:01:52.498Z,86.81
2022-12-15T10:04:30.619Z,86.81
2022-12-15T10:07:08.599Z,86.87
2022-12-15T10:09:37.303Z,86.94
2022-12-15T10:12:11.091Z,86.65
2022-12-15T10:14:41.827Z,86.89
2022-12-15T10:17:21.453Z,86.47
2022-12-15T10:19:55.130Z,86.11
2022-12-15T10:22:24.574Z,86.58
2022-12-15T10:28:13.655Z,86.31
2022-12-15T10:30:49.044Z,86.20
2022-12-15T10:33:21.466Z,86.59
2022-12-15T10:35:48.895Z,86.85
2022-12-15T10:38:24.527Z,86.82
2022-12-15T10:40:54.770Z,86.76
2022-12-15T10:43:35.527Z,86.78
2022-12-15T10:46:07.510Z,86.73
2022-12-15T10:48:36.807Z,86.58
2022-12-15T10:51:21.705Z,86.57
2022-12-15T10:53:51.424Z,86.54
2022-12-15T10:56:25.978Z,87.11
2022-12-15T10:58:57.818Z,87.32
2022-12-15T11:01:26.258Z,87.56
2022-12-15T11:03:55.235Z,87.49
2022-12-15T11:06:24.466Z,87.86
2022-12-15T11:08:53.335Z,87.04
2022-12-15T11:11:45.649Z,86.81
2022-12-15T11:14:15.163Z,87.72
2022-12-15T11:16:54.349Z,87.54
2022-12-15T11:19:39.811Z,86.94
2022-12-15T11:22:13.471Z,87.44
2022-12-15T11:24:45.307Z,87.46
2022-12-15T11:27:22.908Z,87.89
2022-12-15T11:29:59.082Z,87.85
2022-12-15T11:32:28.911Z,88.28
2022-12-15T11:34:56.859Z,88.19
2022-12-15T11:37:41.401Z,88.48
2022-12-15T11:40:32.985Z,88.29
2022-12-15T11:43:12.707Z,88.21
2022-12-15T11:45:42.545Z,88.60
2022-12-15T11:48:12.186Z,88.71
2022-12-15T11:50:51.084Z,89.06
2022-12-15T11:53:41.465Z,88.56
2022-12-15T11:56:14.626Z,87.92
2022-12-15T11:58:56.525Z,87.90
2022-12-15T12:01:47.356Z,88.47
2022-12-15T12:04:24.427Z,88.68
2022-12-15T12:07:07.503Z,88.69
2022-12-15T12:09:36.458Z,88.76
2022-12-15T12:12:13.205Z,88.42
2022-12-15T12:14:50.659Z,87.55
2022-12-15T12:17:27.206Z,87.06
2022-12-15T12:19:57.825Z,89.21
2022-12-15T12:22:30.140Z,89.22
2022-12-15T12:25:02.284Z,87.53
2022-12-15T12:27:37.523Z,88.76
2022-12-15T12:30:11.933Z,89.28
2022-12-15T12:32:47.425Z,89.29
2022-12-15T12:35:41.411Z,89.23
2022-12-15T12:38:11.888Z,89.39
2022-12-15T12:41:02.732Z,88.65
2022-12-15T12:43:34.567Z,89.15
2022-12-15T12:46:07.977Z,89.32
2022-12-15T12:48:38.497Z,89.54
2022-12-15T12:51:16.614Z,89.44
2022-12-15T12:53:44.635Z,89.30
2022-12-15T12:56:40.140Z,89.37
2022-12-15T12:59:36.933Z,89.16
2022-12-15T13:02:46.580Z,89.09
2022-12-15T13:05:24.295Z,89.21
2022-12-15T13:07:55.445Z,89.31
2022-12-15T13:10:24.798Z,89.39
2022-12-15T13:15:42.909Z,89.47
2022-12-15T13:18:16.058Z,89.52
2022-12-15T13:20:44.738Z,89.22
2022-12-15T13:23:36.422Z,89.10
2022-12-15T13:26:19.117Z,89.56
2022-12-15T13:28:50.674Z,89.77
2022-12-15T13:31:32.334Z,89.38
2022-12-15T13:34:12.164Z,89.33
2022-12-15T13:36:56.119Z,89.60
2022-12-15T13:39:48.120Z,90.01
2022-12-15T13:45:44.406Z,89.66
2022-12-15T13:48:27.280Z,89.53
2022-12-15T13:51:02.675Z,89.60
2022-12-15T13:53:38.168Z,89.55
2022-12-15T13:56:18.720Z,89.16
2022-12-15T13:58:57.165Z,89.50
2022-12-15T14:01:31.735Z,89.84
2022-12-15T14:04:03.828Z,89.66
2022-12-15T14:06:35.994Z,88.58
2022-12-15T14:09:03.575Z,89.42
2022-12-15T14:14:25.875Z,89.39
2022-12-15T14:16:58.470Z,89.26
2022-12-15T14:19:25.570Z,89.37
2022-12-15T14:21:54.009Z,88.99
2022-12-15T14:24:42.514Z,86.91
2022-12-15T14:27:09.128Z,88.04
2022-12-15T14:29:37.053Z,89.06
2022-12-15T14:32:04.631Z,89.21
2022-12-15T14:34:33.495Z,89.21
2022-12-15T14:37:03.377Z,89.17
2022-12-15T14:39:36.109Z,89.39
2022-12-15T14:42:04.321Z,89.60
2022-12-15T14:44:38.403Z,88.58
2022-12-15T14:47:16.503Z,89.41
2022-12-15T14:49:45.430Z,89.46
2022-12-15T14:52:25.796Z,89.23
2022-12-15T14:54:57.518Z,89.26
2022-12-15T14:57:26.531Z,86.55
2022-12-15T14:59:53.552Z,89.80
2022-12-15T15:02:24.891Z,89.51
2022-12-15T15:03:05.230Z,89.53
2022-12-15T15:03:16.532Z,89.55
2022-12-15T15:05:00.607Z,89.31
2022-12-15T15:07:28.793Z,88.49
2022-12-15T15:09:55.918Z,88.56
2022-12-15T15:12:24.735Z,88.41
2022-12-15T15:14:54.575Z,88.51
2022-12-15T15:17:30.744Z,88.55
2022-12-15T15:20:01.009Z,86.69
2022-12-15T15:22:35.030Z,88.17
2022-12-15T15:25:02.371Z,86.76
2022-12-15T15:27:35.486Z,83.90
2022-12-15T15:30:17.710Z,85.55
2022-12-15T15:32:56.152Z,86.18
2022-12-15T15:35:24.711Z,85.67
2022-12-15T15:37:52.242Z,86.86
2022-12-15T15:40:18.931Z,88.75
2022-12-15T15:42:45.610Z,84.76
2022-12-15T15:45:16.027Z,87.96
2022-12-15T15:47:47.155Z,90.10
2022-12-15T15:50:17.671Z,89.22
2022-12-15T15:52:44.604Z,88.48
2022-12-15T15:55:16.297Z,87.65
2022-12-15T15:57:42.821Z,87.93
2022-12-15T16:00:21.441Z,87.57
2022-12-15T16:02:48.326Z,87.64
2022-12-15T16:05:16.498Z,87.58
2022-12-15T16:07:46.522Z,87.57
2022-12-15T16:10:15.834Z,87.69
2022-12-15T16:12:45.361Z,86.17
2022-12-15T16:15:18.181Z,87.50
2022-12-15T16:17:45.179Z,87.42
2022-12-15T16:20:13.089Z,87.29
2022-12-15T16:22:41.971Z,87.21
2022-12-15T16:25:21.593Z,86.75
2022-12-15T16:27:48.395Z,87.00
2022-12-15T16:30:17.943Z,83.29
2022-12-15T16:32:44.527Z,87.12
2022-12-15T16:35:11.438Z,85.21
2022-12-15T16:37:39.780Z,84.48
2022-12-15T16:40:16.550Z,88.70
2022-12-15T16:42:44.969Z,87.78
2022-12-15T16:45:16.551Z,87.41
2022-12-15T16:47:43.666Z,87.12
2022-12-15T16:50:13.012Z,86.69
2022-12-15T16:52:40.817Z,83.90
2022-12-15T16:55:17.727Z,87.73
2022-12-15T16:57:44.436Z,87.62
2022-12-15T17:00:19.247Z,86.88
2022-12-15T17:02:46.140Z,86.99
2022-12-15T17:05:12.850Z,87.24
2022-12-15T17:07:39.462Z,86.89
2022-12-15T17:10:07.386Z,86.30
2022-12-15T17:12:35.602Z,86.84
2022-12-15T17:15:02.727Z,86.96
2022-12-15T17:17:31.046Z,86.58
2022-12-15T17:20:28.200Z,86.82
2022-12-15T17:22:47.632Z,86.96
2022-12-15T17:25:31.899Z,86.94
2022-12-15T17:28:13.860Z,86.96
2022-12-15T17:30:40.593Z,86.95
2022-12-15T17:33:17.294Z,87.25
2022-12-15T17:35:44.048Z,87.09
2022-12-15T17:38:14.869Z,87.08
2022-12-15T17:40:41.434Z,87.05
2022-12-15T17:43:13.460Z,87.28
2022-12-15T17:45:40.024Z,87.19
2022-12-15T17:48:07.102Z,87.26
2022-12-15T17:50:33.746Z,87.29
2022-12-15T17:53:01.485Z,87.24
2022-12-15T17:55:34.740Z,87.24
2022-12-15T17:58:05.725Z,87.31
2022-12-15T18:00:33.660Z,87.51
2022-12-15T18:03:01.007Z,87.68
2022-12-15T18:05:30.005Z,87.41
2022-12-15T18:07:58.541Z,87.52
2022-12-15T18:10:29.181Z,87.51
2022-12-15T18:12:56.168Z,87.37
2022-12-15T18:15:24.768Z,87.72
2022-12-15T18:17:52.872Z,87.80
2022-12-15T18:20:19.885Z,86.86
2022-12-15T18:22:47.707Z,87.61
2022-12-15T18:25:16.933Z,88.20
2022-12-15T18:27:43.685Z,88.03
2022-12-15T18:30:15.684Z,87.99
2022-12-15T18:32:43.056Z,88.01
2022-12-15T18:35:20.278Z,88.00
2022-12-15T18:37:47.305Z,88.09
2022-12-15T18:40:15.868Z,88.29
2022-12-15T18:42:43.656Z,88.22
2022-12-15T18:45:21.960Z,88.13
2022-12-15T18:47:49.986Z,88.08
2022-12-15T18:50:20.942Z,87.92
2022-12-15T18:52:48.661Z,87.84
2022-12-15T18:55:19.400Z,88.20
2022-12-15T18:57:46.784Z,88.05
2022-12-15T19:00:24.645Z,88.15
2022-12-15T19:02:53.706Z,88.21
2022-12-15T19:05:32.490Z,88.29
2022-12-15T19:08:08.324Z,88.16
2022-12-15T19:10:36.276Z,88.40
2022-12-15T19:13:03.613Z,88.81
2022-12-15T19:15:30.468Z,88.70
2022-12-15T19:18:15.769Z,87.45
2022-12-15T19:21:02.585Z,88.41
2022-12-15T19:23:29.287Z,88.73
2022-12-15T19:25:56.193Z,88.82
2022-12-15T19:28:23.991Z,88.58
2022-12-15T19:30:52.091Z,88.71
2022-12-15T19:33:19.713Z,88.41
2022-12-15T19:35:50.977Z,88.43
2022-12-15T19:38:22.524Z,88.61
2022-12-15T19:40:49.401Z,88.53
2022-12-15T19:43:17.286Z,88.75
2022-12-15T19:45:44.167Z,88.46
2022-12-15T19:48:12.504Z,88.56
2022-12-15T19:50:41.073Z,88.53
2022-12-15T19:53:15.497Z,88.64
2022-12-15T19:55:42.162Z,88.68
2022-12-15T19:58:27.091Z,88.74
2022-12-15T20:00:55.900Z,88.54
2022-12-15T20:03:22.642Z,88.68
2022-12-15T20:05:51.477Z,88.63
2022-12-15T20:08:23.266Z,88.33
2022-12-15T20:10:50.553Z,88.66
2022-12-15T20:13:17.516Z,88.73
2022-12-15T20:15:44.227Z,88.68
2022-12-15T20:18:11.614Z,88.46
2022-12-15T20:20:39.173Z,88.55
2022-12-15T20:23:10.940Z,88.75
2022-12-15T20:25:40.706Z,88.52
2022-12-15T20:28:10.204Z,88.76
2022-12-15T20:30:37.065Z,88.53
2022-12-15T20:33:05.100Z,88.29
2022-12-15T20:35:34.597Z,88.53
2022-12-15T20:38:05.352Z,88.38
2022-12-15T20:40:32.094Z,88.71
2022-12-15T20:43:00.002Z,88.68
2022-12-15T20:45:27.075Z,88.34
2022-12-15T20:47:55.800Z,86.21
2022-12-15T20:50:28.126Z,88.10
2022-12-15T20:52:54.956Z,88.68
2022-12-15T20:55:21.798Z,88.40
2022-12-15T20:57:48.780Z,88.69
2022-12-15T21:00:20.617Z,88.43
2022-12-15T21:02:48.747Z,88.30
2022-12-15T21:05:17.736Z,88.68
2022-12-15T21:07:44.844Z,88.28
2022-12-15T21:10:12.878Z,88.12
2022-12-15T21:12:40.680Z,88.50
2022-12-15T21:15:16.516Z,87.91
2022-12-15T21:17:43.861Z,87.98
2022-12-15T21:20:11.770Z,87.76
2022-12-15T21:22:38.588Z,86.52
2022-12-15T21:25:16.102Z,87.87
2022-12-15T21:27:42.659Z,88.54
2022-12-15T21:30:17.150Z,88.70
2022-12-15T21:32:43.797Z,88.83
2022-12-15T21:35:13.870Z,89.11
2022-12-15T21:37:42.073Z,89.43
2022-12-15T21:40:16.177Z,89.52
2022-12-15T21:42:42.901Z,89.60
2022-12-15T21:45:15.645Z,89.86
2022-12-15T21:48:01.071Z,90.11
2022-12-15T21:50:28.108Z,90.01
2022-12-15T21:52:55.158Z,90.48
2022-12-15T21:55:24.210Z,90.49
2022-12-15T21:57:51.698Z,90.66
2022-12-15T22:00:21.803Z,90.71
2022-12-15T22:02:49.958Z,91.16
2022-12-15T22:05:19.209Z,91.00
2022-12-15T22:07:45.809Z,90.64
2022-12-15T22:10:12.834Z,90.92
2022-12-15T22:12:40.498Z,91.09
2022-12-15T22:15:13.796Z,91.20
2022-12-15T22:17:42.438Z,91.03
2022-12-15T22:20:14.783Z,91.18
2022-12-15T22:22:41.910Z,89.50
2022-12-15T22:25:15.983Z,89.58
2022-12-15T22:27:43.695Z,91.36
2022-12-15T22:30:14.774Z,91.28
2022-12-15T22:32:42.741Z,91.26
2022-12-15T22:35:13.735Z,91.63
2022-12-15T22:37:40.282Z,91.72
2022-12-15T22:40:08.007Z,91.56
2022-12-15T22:42:35.116Z,91.40
2022-12-15T22:45:02.313Z,91.36
2022-12-15T22:47:28.885Z,91.75
2022-12-15T22:49:56.852Z,90.79
2022-12-15T22:52:23.408Z,88.73
2022-12-15T22:54:50.259Z,91.75
2022-12-15T22:57:21.398Z,91.89
2022-12-15T23:00:00.237Z,91.94
2022-12-15T23:02:28.032Z,91.89
2022-12-15T23:04:55.256Z,91.66
2022-12-15T23:07:23.327Z,91.97
2022-12-15T23:10:09.856Z,91.71
2022-12-15T23:12:36.449Z,91.48
2022-12-15T23:15:21.967Z,91.71
2022-12-15T23:17:48.525Z,92.09
2022-12-15T23:20:15.421Z,91.48
2022-12-15T23:22:43.324Z,92.10
2022-12-15T23:25:10.189Z,91.43
2022-12-15T23:27:36.769Z,91.37
2022-12-15T23:30:03.973Z,91.53
2022-12-15T23:32:30.530Z,91.46
2022-12-15T23:34:57.186Z,91.67
2022-12-15T23:37:23.750Z,91.39
2022-12-15T23:39:51.607Z,91.75
2022-12-15T23:42:18.322Z,91.70
2022-12-15T23:44:44.893Z,92.09
2022-12-15T23:47:11.516Z,91.38
2022-12-15T23:49:38.115Z,91.75
2022-12-15T23:52:04.954Z,91.17
2022-12-15T23:54:31.617Z,91.41
2022-12-15T23:56:59.575Z,91.80
2022-12-15T23:59:26.110Z,91.65
